sensor_id;sensor_type;location;lat;lon;timestamp;P1;durP1;ratioP1;P2;durP2;ratioP2
47715;SDS011;33476;50.984;3.538;2022-09-12T00:00:45;7.47;;;5.10;;
47715;SDS011;33476;50.984;3.538;2022-09-12T00:03:11;7.20;;;5.32;;
47715;SDS011;33476;50.984;3.538;2022-09-12T00:05:40;5.03;;;4.53;;
47715;SDS011;33476;50.984;3.538;2022-09-12T00:08:09;7.40;;;5.38;;
47715;SDS011;33476;50.984;3.538;2022-09-12T00:10:36;8.52;;;5.65;;
47715;SDS011;33476;50.984;3.538;2022-09-12T00:13:03;6.10;;;5.28;;
47715;SDS011;33476;50.984;3.538;2022-09-12T00:15:29;6.40;;;5.18;;
47715;SDS011;33476;50.984;3.538;2022-09-12T00:17:54;7.78;;;4.97;;
47715;SDS011;33476;50.984;3.538;2022-09-12T00:20:20;6.53;;;5.00;;
47715;SDS011;33476;50.984;3.538;2022-09-12T00:22:45;5.88;;;5.22;;
47715;SDS011;33476;50.984;3.538;2022-09-12T00:25:11;6.25;;;4.88;;
47715;SDS011;33476;50.984;3.538;2022-09-12T00:27:36;6.68;;;5.28;;
47715;SDS011;33476;50.984;3.538;2022-09-12T00:30:02;7.97;;;5.22;;
47715;SDS011;33476;50.984;3.538;2022-09-12T00:32:28;5.57;;;4.60;;
47715;SDS011;33476;50.984;3.538;2022-09-12T00:34:53;8.65;;;5.28;;
47715;SDS011;33476;50.984;3.538;2022-09-12T00:37:18;7.13;;;5.30;;
47715;SDS011;33476;50.984;3.538;2022-09-12T00:39:44;8.43;;;5.50;;
47715;SDS011;33476;50.984;3.538;2022-09-12T00:42:10;6.70;;;5.00;;
47715;SDS011;33476;50.984;3.538;2022-09-12T00:47:15;7.78;;;5.13;;
47715;SDS011;33476;50.984;3.538;2022-09-12T00:49:59;7.57;;;5.47;;
47715;SDS011;33476;50.984;3.538;2022-09-12T00:52:42;6.63;;;4.85;;
47715;SDS011;33476;50.984;3.538;2022-09-12T00:55:12;6.80;;;5.10;;
47715;SDS011;33476;50.984;3.538;2022-09-12T00:57:48;5.30;;;4.78;;
47715;SDS011;33476;50.984;3.538;2022-09-12T01:00:22;6.03;;;4.03;;
47715;SDS011;33476;50.984;3.538;2022-09-12T01:02:50;5.68;;;4.53;;
47715;SDS011;33476;50.984;3.538;2022-09-12T01:05:25;7.78;;;4.93;;
47715;SDS011;33476;50.984;3.538;2022-09-12T01:07:52;6.22;;;4.47;;
47715;SDS011;33476;50.984;3.538;2022-09-12T01:10:20;5.35;;;4.75;;
47715;SDS011;33476;50.984;3.538;2022-09-12T01:12:46;7.13;;;4.90;;
47715;SDS011;33476;50.984;3.538;2022-09-12T01:15:12;7.22;;;4.90;;
47715;SDS011;33476;50.984;3.538;2022-09-12T01:31:39;5.22;;;4.70;;
47715;SDS011;33476;50.984;3.538;2022-09-12T01:34:23;6.13;;;4.85;;
47715;SDS011;33476;50.984;3.538;2022-09-12T01:40:15;9.35;;;4.90;;
47715;SDS011;33476;50.984;3.538;2022-09-12T01:43:03;7.68;;;5.20;;
47715;SDS011;33476;50.984;3.538;2022-09-12T01:48:23;8.18;;;5.72;;
47715;SDS011;33476;50.984;3.538;2022-09-12T01:51:04;7.68;;;5.68;;
47715;SDS011;33476;50.984;3.538;2022-09-12T01:53:37;8.27;;;6.03;;
47715;SDS011;33476;50.984;3.538;2022-09-12T01:56:07;6.68;;;5.35;;
47715;SDS011;33476;50.984;3.538;2022-09-12T02:01:15;10.20;;;6.18;;
47715;SDS011;33476;50.984;3.538;2022-09-12T02:03:56;7.50;;;5.90;;
47715;SDS011;33476;50.984;3.538;2022-09-12T02:06:32;7.65;;;5.97;;
47715;SDS011;33476;50.984;3.538;2022-09-12T02:09:06;10.48;;;5.88;;
47715;SDS011;33476;50.984;3.538;2022-09-12T02:11:40;7.15;;;5.45;;
47715;SDS011;33476;50.984;3.538;2022-09-12T02:14:09;8.27;;;5.70;;
47715;SDS011;33476;50.984;3.538;2022-09-12T02:16:41;8.20;;;6.05;;
47715;SDS011;33476;50.984;3.538;2022-09-12T02:19:13;8.18;;;6.30;;
47715;SDS011;33476;50.984;3.538;2022-09-12T02:21:44;8.43;;;5.30;;
47715;SDS011;33476;50.984;3.538;2022-09-12T02:24:15;7.30;;;5.30;;
47715;SDS011;33476;50.984;3.538;2022-09-12T02:26:54;10.13;;;5.93;;
47715;SDS011;33476;50.984;3.538;2022-09-12T02:29:24;8.75;;;6.05;;
47715;SDS011;33476;50.984;3.538;2022-09-12T02:32:00;9.30;;;5.80;;
47715;SDS011;33476;50.984;3.538;2022-09-12T02:34:53;8.68;;;6.32;;
47715;SDS011;33476;50.984;3.538;2022-09-12T02:39:57;8.90;;;5.93;;
47715;SDS011;33476;50.984;3.538;2022-09-12T02:42:24;8.75;;;6.10;;
47715;SDS011;33476;50.984;3.538;2022-09-12T02:44:50;8.88;;;6.25;;
47715;SDS011;33476;50.984;3.538;2022-09-12T02:47:35;11.63;;;6.97;;
47715;SDS011;33476;50.984;3.538;2022-09-12T02:50:11;9.75;;;6.15;;
47715;SDS011;33476;50.984;3.538;2022-09-12T02:52:37;9.35;;;6.00;;
47715;SDS011;33476;50.984;3.538;2022-09-12T02:55:04;9.00;;;5.88;;
47715;SDS011;33476;50.984;3.538;2022-09-12T02:57:30;11.23;;;6.70;;
47715;SDS011;33476;50.984;3.538;2022-09-12T02:59:57;8.07;;;5.78;;
47715;SDS011;33476;50.984;3.538;2022-09-12T03:05:19;7.03;;;5.20;;
47715;SDS011;33476;50.984;3.538;2022-09-12T03:16:26;6.10;;;5.20;;
47715;SDS011;33476;50.984;3.538;2022-09-12T03:24:38;7.35;;;5.28;;
47715;SDS011;33476;50.984;3.538;2022-09-12T03:27:20;9.70;;;5.65;;
47715;SDS011;33476;50.984;3.538;2022-09-12T03:29:51;8.10;;;5.32;;
47715;SDS011;33476;50.984;3.538;2022-09-12T03:32:17;7.38;;;5.43;;
47715;SDS011;33476;50.984;3.538;2022-09-12T03:34:43;6.97;;;5.45;;
47715;SDS011;33476;50.984;3.538;2022-09-12T03:37:08;7.40;;;5.50;;
47715;SDS011;33476;50.984;3.538;2022-09-12T03:39:33;11.32;;;6.15;;
47715;SDS011;33476;50.984;3.538;2022-09-12T03:41:59;7.45;;;5.57;;
47715;SDS011;33476;50.984;3.538;2022-09-12T03:44:24;8.63;;;6.22;;
47715;SDS011;33476;50.984;3.538;2022-09-12T03:46:50;8.23;;;5.65;;
47715;SDS011;33476;50.984;3.538;2022-09-12T03:49:15;9.13;;;5.18;;
47715;SDS011;33476;50.984;3.538;2022-09-12T03:51:41;11.38;;;5.75;;
47715;SDS011;33476;50.984;3.538;2022-09-12T03:54:07;11.32;;;5.85;;
47715;SDS011;33476;50.984;3.538;2022-09-12T03:56:33;7.45;;;5.10;;
47715;SDS011;33476;50.984;3.538;2022-09-12T03:59:00;6.82;;;5.40;;
47715;SDS011;33476;50.984;3.538;2022-09-12T04:01:25;7.38;;;5.43;;
47715;SDS011;33476;50.984;3.538;2022-09-12T04:03:51;8.05;;;5.68;;
47715;SDS011;33476;50.984;3.538;2022-09-12T04:06:18;6.43;;;5.28;;
47715;SDS011;33476;50.984;3.538;2022-09-12T04:08:46;7.40;;;5.25;;
47715;SDS011;33476;50.984;3.538;2022-09-12T04:11:14;8.43;;;5.97;;
47715;SDS011;33476;50.984;3.538;2022-09-12T04:13:41;9.48;;;6.18;;
47715;SDS011;33476;50.984;3.538;2022-09-12T04:16:08;7.25;;;5.68;;
47715;SDS011;33476;50.984;3.538;2022-09-12T04:18:33;6.85;;;5.45;;
47715;SDS011;33476;50.984;3.538;2022-09-12T04:21:03;8.60;;;6.22;;
47715;SDS011;33476;50.984;3.538;2022-09-12T04:23:30;8.93;;;5.55;;
47715;SDS011;33476;50.984;3.538;2022-09-12T04:25:56;8.13;;;6.10;;
47715;SDS011;33476;50.984;3.538;2022-09-12T04:28:22;10.70;;;5.65;;
47715;SDS011;33476;50.984;3.538;2022-09-12T04:30:48;8.70;;;5.97;;
47715;SDS011;33476;50.984;3.538;2022-09-12T04:33:14;7.57;;;5.30;;
47715;SDS011;33476;50.984;3.538;2022-09-12T04:35:40;7.93;;;5.38;;
47715;SDS011;33476;50.984;3.538;2022-09-12T04:38:05;7.30;;;5.75;;
47715;SDS011;33476;50.984;3.538;2022-09-12T04:40:31;7.80;;;5.63;;
47715;SDS011;33476;50.984;3.538;2022-09-12T04:42:57;7.05;;;5.35;;
47715;SDS011;33476;50.984;3.538;2022-09-12T04:45:23;12.23;;;6.65;;
47715;SDS011;33476;50.984;3.538;2022-09-12T04:47:48;8.70;;;6.00;;
47715;SDS011;33476;50.984;3.538;2022-09-12T04:50:14;6.93;;;5.60;;
47715;SDS011;33476;50.984;3.538;2022-09-12T04:52:39;8.35;;;5.75;;
47715;SDS011;33476;50.984;3.538;2022-09-12T04:55:06;9.38;;;6.45;;
47715;SDS011;33476;50.984;3.538;2022-09-12T04:57:32;10.30;;;6.35;;
47715;SDS011;33476;50.984;3.538;2022-09-12T04:59:57;11.90;;;7.57;;
47715;SDS011;33476;50.984;3.538;2022-09-12T05:02:24;11.65;;;7.15;;
47715;SDS011;33476;50.984;3.538;2022-09-12T05:04:49;8.15;;;6.03;;
47715;SDS011;33476;50.984;3.538;2022-09-12T05:07:16;9.40;;;6.20;;
47715;SDS011;33476;50.984;3.538;2022-09-12T05:09:42;10.68;;;6.10;;
47715;SDS011;33476;50.984;3.538;2022-09-12T05:12:08;11.82;;;6.75;;
47715;SDS011;33476;50.984;3.538;2022-09-12T05:14:33;9.52;;;6.05;;
47715;SDS011;33476;50.984;3.538;2022-09-12T05:16:59;11.60;;;6.22;;
47715;SDS011;33476;50.984;3.538;2022-09-12T05:19:25;12.15;;;6.15;;
47715;SDS011;33476;50.984;3.538;2022-09-12T05:21:51;10.57;;;6.95;;
47715;SDS011;33476;50.984;3.538;2022-09-12T05:24:17;9.02;;;6.03;;
47715;SDS011;33476;50.984;3.538;2022-09-12T05:26:42;9.10;;;6.35;;
47715;SDS011;33476;50.984;3.538;2022-09-12T05:29:07;6.90;;;5.57;;
47715;SDS011;33476;50.984;3.538;2022-09-12T05:31:33;9.20;;;6.53;;
47715;SDS011;33476;50.984;3.538;2022-09-12T05:33:58;11.35;;;6.57;;
47715;SDS011;33476;50.984;3.538;2022-09-12T05:36:28;11.50;;;7.03;;
47715;SDS011;33476;50.984;3.538;2022-09-12T05:38:54;12.40;;;6.28;;
47715;SDS011;33476;50.984;3.538;2022-09-12T05:41:22;13.50;;;6.80;;
47715;SDS011;33476;50.984;3.538;2022-09-12T05:43:52;9.63;;;6.78;;
47715;SDS011;33476;50.984;3.538;2022-09-12T05:46:20;12.77;;;6.85;;
47715;SDS011;33476;50.984;3.538;2022-09-12T05:48:47;10.57;;;6.90;;
47715;SDS011;33476;50.984;3.538;2022-09-12T05:51:20;9.68;;;6.57;;
47715;SDS011;33476;50.984;3.538;2022-09-12T05:53:56;9.35;;;6.57;;
47715;SDS011;33476;50.984;3.538;2022-09-12T05:56:24;11.73;;;6.60;;
47715;SDS011;33476;50.984;3.538;2022-09-12T05:59:10;9.90;;;6.38;;
47715;SDS011;33476;50.984;3.538;2022-09-12T06:01:45;13.80;;;6.22;;
47715;SDS011;33476;50.984;3.538;2022-09-12T06:04:11;14.88;;;6.43;;
47715;SDS011;33476;50.984;3.538;2022-09-12T06:06:38;10.95;;;6.68;;
47715;SDS011;33476;50.984;3.538;2022-09-12T06:09:05;15.07;;;7.13;;
47715;SDS011;33476;50.984;3.538;2022-09-12T06:11:32;10.07;;;7.20;;
47715;SDS011;33476;50.984;3.538;2022-09-12T06:13:59;9.80;;;6.40;;
47715;SDS011;33476;50.984;3.538;2022-09-12T06:16:26;13.15;;;7.32;;
47715;SDS011;33476;50.984;3.538;2022-09-12T06:19:00;10.20;;;6.35;;
47715;SDS011;33476;50.984;3.538;2022-09-12T06:21:27;12.45;;;7.13;;
47715;SDS011;33476;50.984;3.538;2022-09-12T06:23:55;10.90;;;6.57;;
47715;SDS011;33476;50.984;3.538;2022-09-12T06:26:22;10.57;;;7.05;;
47715;SDS011;33476;50.984;3.538;2022-09-12T06:28:50;9.48;;;6.28;;
47715;SDS011;33476;50.984;3.538;2022-09-12T06:31:17;11.88;;;6.80;;
47715;SDS011;33476;50.984;3.538;2022-09-12T06:33:53;11.18;;;6.53;;
47715;SDS011;33476;50.984;3.538;2022-09-12T06:36:21;13.23;;;6.60;;
47715;SDS011;33476;50.984;3.538;2022-09-12T06:38:52;15.82;;;6.60;;
47715;SDS011;33476;50.984;3.538;2022-09-12T06:41:20;10.48;;;6.57;;
47715;SDS011;33476;50.984;3.538;2022-09-12T06:43:45;12.82;;;6.95;;
47715;SDS011;33476;50.984;3.538;2022-09-12T06:46:11;11.80;;;6.40;;
47715;SDS011;33476;50.984;3.538;2022-09-12T06:48:37;9.18;;;6.00;;
47715;SDS011;33476;50.984;3.538;2022-09-12T06:51:03;12.32;;;5.90;;
47715;SDS011;33476;50.984;3.538;2022-09-12T06:53:31;8.82;;;5.18;;
47715;SDS011;33476;50.984;3.538;2022-09-12T06:56:01;9.98;;;5.82;;
47715;SDS011;33476;50.984;3.538;2022-09-12T06:58:30;13.82;;;5.85;;
47715;SDS011;33476;50.984;3.538;2022-09-12T07:01:03;10.65;;;5.47;;
47715;SDS011;33476;50.984;3.538;2022-09-12T07:03:32;7.43;;;5.63;;
47715;SDS011;33476;50.984;3.538;2022-09-12T07:06:02;7.70;;;5.55;;
47715;SDS011;33476;50.984;3.538;2022-09-12T07:08:30;8.27;;;5.45;;
47715;SDS011;33476;50.984;3.538;2022-09-12T07:10:56;7.05;;;4.75;;
47715;SDS011;33476;50.984;3.538;2022-09-12T07:13:23;8.75;;;5.55;;
47715;SDS011;33476;50.984;3.538;2022-09-12T07:15:49;7.80;;;5.55;;
47715;SDS011;33476;50.984;3.538;2022-09-12T07:18:15;6.32;;;5.30;;
47715;SDS011;33476;50.984;3.538;2022-09-12T07:20:41;5.97;;;4.70;;
47715;SDS011;33476;50.984;3.538;2022-09-12T07:23:06;7.10;;;4.78;;
47715;SDS011;33476;50.984;3.538;2022-09-12T07:25:32;7.63;;;4.90;;
47715;SDS011;33476;50.984;3.538;2022-09-12T07:27:57;9.23;;;4.90;;
47715;SDS011;33476;50.984;3.538;2022-09-12T07:30:23;6.25;;;4.55;;
47715;SDS011;33476;50.984;3.538;2022-09-12T07:32:54;6.13;;;4.75;;
47715;SDS011;33476;50.984;3.538;2022-09-12T07:35:19;8.48;;;5.10;;
47715;SDS011;33476;50.984;3.538;2022-09-12T07:37:45;9.18;;;5.03;;
47715;SDS011;33476;50.984;3.538;2022-09-12T07:40:11;5.43;;;3.65;;
47715;SDS011;33476;50.984;3.538;2022-09-12T07:42:36;6.35;;;3.38;;
47715;SDS011;33476;50.984;3.538;2022-09-12T07:45:02;4.90;;;3.75;;
47715;SDS011;33476;50.984;3.538;2022-09-12T07:47:27;9.13;;;4.13;;
47715;SDS011;33476;50.984;3.538;2022-09-12T07:49:52;5.72;;;4.32;;
47715;SDS011;33476;50.984;3.538;2022-09-12T07:52:18;6.53;;;4.03;;
47715;SDS011;33476;50.984;3.538;2022-09-12T07:54:43;7.13;;;3.83;;
47715;SDS011;33476;50.984;3.538;2022-09-12T07:57:08;5.22;;;3.65;;
47715;SDS011;33476;50.984;3.538;2022-09-12T07:59:34;8.45;;;3.90;;
47715;SDS011;33476;50.984;3.538;2022-09-12T08:01:59;5.78;;;3.78;;
47715;SDS011;33476;50.984;3.538;2022-09-12T08:04:25;5.85;;;3.38;;
47715;SDS011;33476;50.984;3.538;2022-09-12T08:06:50;5.65;;;3.88;;
47715;SDS011;33476;50.984;3.538;2022-09-12T08:09:15;6.18;;;4.15;;
47715;SDS011;33476;50.984;3.538;2022-09-12T08:11:41;5.82;;;3.45;;
47715;SDS011;33476;50.984;3.538;2022-09-12T08:14:07;8.50;;;3.28;;
47715;SDS011;33476;50.984;3.538;2022-09-12T08:16:33;5.18;;;3.30;;
47715;SDS011;33476;50.984;3.538;2022-09-12T08:19:00;4.47;;;3.05;;
47715;SDS011;33476;50.984;3.538;2022-09-12T08:21:30;5.65;;;3.30;;
47715;SDS011;33476;50.984;3.538;2022-09-12T08:23:58;7.97;;;3.28;;
47715;SDS011;33476;50.984;3.538;2022-09-12T08:26:26;5.15;;;3.30;;
47715;SDS011;33476;50.984;3.538;2022-09-12T08:28:52;4.32;;;2.83;;
47715;SDS011;33476;50.984;3.538;2022-09-12T08:31:19;4.97;;;3.28;;
47715;SDS011;33476;50.984;3.538;2022-09-12T08:33:47;5.25;;;2.70;;
47715;SDS011;33476;50.984;3.538;2022-09-12T08:36:14;2.65;;;2.45;;
47715;SDS011;33476;50.984;3.538;2022-09-12T08:38:42;3.47;;;2.58;;
47715;SDS011;33476;50.984;3.538;2022-09-12T08:49:00;2.55;;;1.70;;
47715;SDS011;33476;50.984;3.538;2022-09-12T08:51:27;4.18;;;2.05;;
47715;SDS011;33476;50.984;3.538;2022-09-12T08:53:57;2.90;;;1.95;;
47715;SDS011;33476;50.984;3.538;2022-09-12T08:56:25;6.10;;;2.20;;
47715;SDS011;33476;50.984;3.538;2022-09-12T08:58:55;4.20;;;2.50;;
47715;SDS011;33476;50.984;3.538;2022-09-12T09:12:34;3.70;;;1.90;;
47715;SDS011;33476;50.984;3.538;2022-09-12T09:15:13;4.53;;;1.58;;
47715;SDS011;33476;50.984;3.538;2022-09-12T09:18:02;4.43;;;1.67;;
47715;SDS011;33476;50.984;3.538;2022-09-12T09:25:47;7.55;;;1.13;;
47715;SDS011;33476;50.984;3.538;2022-09-12T09:28:35;2.17;;;1.02;;
47715;SDS011;33476;50.984;3.538;2022-09-12T09:31:19;4.03;;;1.10;;
47715;SDS011;33476;50.984;3.538;2022-09-12T09:33:49;2.25;;;0.73;;
47715;SDS011;33476;50.984;3.538;2022-09-12T09:36:22;1.55;;;0.75;;
47715;SDS011;33476;50.984;3.538;2022-09-12T09:39:02;7.10;;;1.20;;
47715;SDS011;33476;50.984;3.538;2022-09-12T09:44:17;2.45;;;0.90;;
47715;SDS011;33476;50.984;3.538;2022-09-12T09:46:42;2.45;;;1.10;;
47715;SDS011;33476;50.984;3.538;2022-09-12T09:49:09;3.80;;;1.20;;
47715;SDS011;33476;50.984;3.538;2022-09-12T09:51:38;3.08;;;1.25;;
47715;SDS011;33476;50.984;3.538;2022-09-12T09:57:01;3.65;;;1.00;;
47715;SDS011;33476;50.984;3.538;2022-09-12T09:59:30;6.28;;;1.08;;
47715;SDS011;33476;50.984;3.538;2022-09-12T10:01:58;3.53;;;1.05;;
47715;SDS011;33476;50.984;3.538;2022-09-12T10:04:34;1.42;;;0.98;;
47715;SDS011;33476;50.984;3.538;2022-09-12T10:07:02;2.95;;;1.20;;
47715;SDS011;33476;50.984;3.538;2022-09-12T10:09:30;3.97;;;1.60;;
47715;SDS011;33476;50.984;3.538;2022-09-12T10:11:57;3.47;;;1.00;;
47715;SDS011;33476;50.984;3.538;2022-09-12T10:14:27;1.92;;;1.17;;
47715;SDS011;33476;50.984;3.538;2022-09-12T10:16:59;3.70;;;1.20;;
47715;SDS011;33476;50.984;3.538;2022-09-12T10:19:35;2.42;;;1.38;;
47715;SDS011;33476;50.984;3.538;2022-09-12T10:22:02;1.85;;;1.10;;
47715;SDS011;33476;50.984;3.538;2022-09-12T10:24:32;1.98;;;1.25;;
47715;SDS011;33476;50.984;3.538;2022-09-12T10:29:32;3.83;;;1.30;;
47715;SDS011;33476;50.984;3.538;2022-09-12T10:32:04;2.05;;;0.90;;
47715;SDS011;33476;50.984;3.538;2022-09-12T10:34:42;2.30;;;0.80;;
47715;SDS011;33476;50.984;3.538;2022-09-12T10:37:22;3.95;;;1.25;;
47715;SDS011;33476;50.984;3.538;2022-09-12T10:39:53;2.75;;;0.95;;
47715;SDS011;33476;50.984;3.538;2022-09-12T10:47:46;2.00;;;0.90;;
47715;SDS011;33476;50.984;3.538;2022-09-12T10:50:19;0.98;;;0.60;;
47715;SDS011;33476;50.984;3.538;2022-09-12T10:52:45;2.13;;;0.70;;
47715;SDS011;33476;50.984;3.538;2022-09-12T10:55:13;5.57;;;1.08;;
47715;SDS011;33476;50.984;3.538;2022-09-12T11:00:23;2.45;;;0.63;;
47715;SDS011;33476;50.984;3.538;2022-09-12T11:03:01;3.30;;;0.90;;
47715;SDS011;33476;50.984;3.538;2022-09-12T11:05:59;2.35;;;0.73;;
47715;SDS011;33476;50.984;3.538;2022-09-12T11:13:56;2.05;;;0.50;;
47715;SDS011;33476;50.984;3.538;2022-09-12T11:16:41;3.05;;;0.60;;
47715;SDS011;33476;50.984;3.538;2022-09-12T11:23:00;3.75;;;1.00;;
47715;SDS011;33476;50.984;3.538;2022-09-12T11:28:17;4.55;;;0.50;;
47715;SDS011;33476;50.984;3.538;2022-09-12T11:33:40;3.72;;;0.68;;
47715;SDS011;33476;50.984;3.538;2022-09-12T11:36:11;1.73;;;0.50;;
47715;SDS011;33476;50.984;3.538;2022-09-12T11:38:49;1.90;;;0.60;;
47715;SDS011;33476;50.984;3.538;2022-09-12T11:41:25;2.95;;;0.50;;
47715;SDS011;33476;50.984;3.538;2022-09-12T11:46:52;3.38;;;0.70;;
47715;SDS011;33476;50.984;3.538;2022-09-12T11:52:10;5.18;;;0.60;;
47715;SDS011;33476;50.984;3.538;2022-09-12T11:54:43;2.70;;;0.40;;
47715;SDS011;33476;50.984;3.538;2022-09-12T11:59:53;2.20;;;0.57;;
47715;SDS011;33476;50.984;3.538;2022-09-12T12:02:26;2.08;;;0.30;;
47715;SDS011;33476;50.984;3.538;2022-09-12T12:07:54;3.42;;;0.47;;
47715;SDS011;33476;50.984;3.538;2022-09-12T12:10:26;3.50;;;0.40;;
47715;SDS011;33476;50.984;3.538;2022-09-12T12:12:54;3.20;;;0.40;;
47715;SDS011;33476;50.984;3.538;2022-09-12T12:15:21;5.10;;;0.60;;
47715;SDS011;33476;50.984;3.538;2022-09-12T12:18:03;2.47;;;0.30;;
47715;SDS011;33476;50.984;3.538;2022-09-12T12:20:31;3.25;;;0.60;;
47715;SDS011;33476;50.984;3.538;2022-09-12T12:22:56;2.33;;;0.40;;
47715;SDS011;33476;50.984;3.538;2022-09-12T12:25:23;1.65;;;0.30;;
47715;SDS011;33476;50.984;3.538;2022-09-12T12:28:00;1.70;;;0.38;;
47715;SDS011;33476;50.984;3.538;2022-09-12T12:35:43;4.55;;;0.30;;
47715;SDS011;33476;50.984;3.538;2022-09-12T12:38:29;0.93;;;0.30;;
47715;SDS011;33476;50.984;3.538;2022-09-12T12:43:49;4.93;;;0.40;;
47715;SDS011;33476;50.984;3.538;2022-09-12T12:46:19;1.40;;;0.30;;
47715;SDS011;33476;50.984;3.538;2022-09-12T12:51:35;0.98;;;0.22;;
47715;SDS011;33476;50.984;3.538;2022-09-12T12:54:02;1.75;;;0.30;;
47715;SDS011;33476;50.984;3.538;2022-09-12T12:56:34;5.38;;;0.55;;
47715;SDS011;33476;50.984;3.538;2022-09-12T12:59:12;2.42;;;0.30;;
47715;SDS011;33476;50.984;3.538;2022-09-12T13:01:48;3.53;;;0.28;;
47715;SDS011;33476;50.984;3.538;2022-09-12T13:04:18;2.88;;;0.28;;
47715;SDS011;33476;50.984;3.538;2022-09-12T13:06:46;3.00;;;0.25;;
47715;SDS011;33476;50.984;3.538;2022-09-12T13:09:24;1.00;;;0.20;;
47715;SDS011;33476;50.984;3.538;2022-09-12T13:11:59;2.60;;;0.30;;
47715;SDS011;33476;50.984;3.538;2022-09-12T13:16:58;3.08;;;0.22;;
47715;SDS011;33476;50.984;3.538;2022-09-12T13:19:27;3.55;;;0.40;;
47715;SDS011;33476;50.984;3.538;2022-09-12T13:21:58;3.05;;;0.20;;
47715;SDS011;33476;50.984;3.538;2022-09-12T13:26:50;4.20;;;0.23;;
47715;SDS011;33476;50.984;3.538;2022-09-12T13:29:18;2.10;;;0.20;;
47715;SDS011;33476;50.984;3.538;2022-09-12T13:31:46;1.05;;;0.20;;
47715;SDS011;33476;50.984;3.538;2022-09-12T13:34:21;2.22;;;0.20;;
47715;SDS011;33476;50.984;3.538;2022-09-12T13:47:55;1.30;;;0.30;;
47715;SDS011;33476;50.984;3.538;2022-09-12T13:50:25;1.65;;;0.30;;
47715;SDS011;33476;50.984;3.538;2022-09-12T13:53:00;0.50;;;0.20;;
47715;SDS011;33476;50.984;3.538;2022-09-12T13:55:31;10.82;;;0.52;;
47715;SDS011;33476;50.984;3.538;2022-09-12T14:00:31;1.73;;;0.17;;
47715;SDS011;33476;50.984;3.538;2022-09-12T14:02:59;1.10;;;0.20;;
47715;SDS011;33476;50.984;3.538;2022-09-12T14:05:44;3.55;;;0.25;;
47715;SDS011;33476;50.984;3.538;2022-09-12T14:08:19;2.90;;;0.20;;
47715;SDS011;33476;50.984;3.538;2022-09-12T14:10:46;2.85;;;0.38;;
47715;SDS011;33476;50.984;3.538;2022-09-12T14:13:18;1.35;;;0.20;;
47715;SDS011;33476;50.984;3.538;2022-09-12T14:15:46;1.55;;;0.20;;
47715;SDS011;33476;50.984;3.538;2022-09-12T14:18:22;2.05;;;0.20;;
47715;SDS011;33476;50.984;3.538;2022-09-12T14:20:52;7.63;;;0.30;;
47715;SDS011;33476;50.984;3.538;2022-09-12T14:23:28;1.42;;;0.20;;
47715;SDS011;33476;50.984;3.538;2022-09-12T14:25:55;1.38;;;0.20;;
47715;SDS011;33476;50.984;3.538;2022-09-12T14:28:22;2.28;;;0.30;;
47715;SDS011;33476;50.984;3.538;2022-09-12T14:30:56;3.85;;;0.30;;
47715;SDS011;33476;50.984;3.538;2022-09-12T14:33:27;1.92;;;0.20;;
47715;SDS011;33476;50.984;3.538;2022-09-12T14:36:06;1.17;;;0.28;;
47715;SDS011;33476;50.984;3.538;2022-09-12T14:38:39;2.97;;;0.20;;
47715;SDS011;33476;50.984;3.538;2022-09-12T14:41:08;1.00;;;0.20;;
47715;SDS011;33476;50.984;3.538;2022-09-12T14:43:41;2.50;;;0.30;;
47715;SDS011;33476;50.984;3.538;2022-09-12T14:46:52;1.27;;;0.20;;
47715;SDS011;33476;50.984;3.538;2022-09-12T14:49:33;1.02;;;0.20;;
47715;SDS011;33476;50.984;3.538;2022-09-12T14:51:54;4.00;;;0.20;;
47715;SDS011;33476;50.984;3.538;2022-09-12T14:59:27;3.15;;;0.40;;
47715;SDS011;33476;50.984;3.538;2022-09-12T15:04:41;2.38;;;0.20;;
47715;SDS011;33476;50.984;3.538;2022-09-12T15:07:14;1.33;;;0.17;;
47715;SDS011;33476;50.984;3.538;2022-09-12T15:09:46;1.08;;;0.20;;
47715;SDS011;33476;50.984;3.538;2022-09-12T15:12:12;1.38;;;0.10;;
47715;SDS011;33476;50.984;3.538;2022-09-12T15:14:37;1.13;;;0.25;;
47715;SDS011;33476;50.984;3.538;2022-09-12T15:17:02;1.45;;;0.10;;
47715;SDS011;33476;50.984;3.538;2022-09-12T15:19:28;1.52;;;0.20;;
47715;SDS011;33476;50.984;3.538;2022-09-12T15:21:53;0.98;;;0.20;;
47715;SDS011;33476;50.984;3.538;2022-09-12T15:24:18;1.38;;;0.28;;
47715;SDS011;33476;50.984;3.538;2022-09-12T15:26:44;3.28;;;0.28;;
47715;SDS011;33476;50.984;3.538;2022-09-12T15:29:09;3.78;;;0.20;;
47715;SDS011;33476;50.984;3.538;2022-09-12T15:31:34;2.83;;;0.20;;
47715;SDS011;33476;50.984;3.538;2022-09-12T15:34:00;1.35;;;0.20;;
47715;SDS011;33476;50.984;3.538;2022-09-12T15:36:27;2.47;;;0.28;;
47715;SDS011;33476;50.984;3.538;2022-09-12T15:38:53;0.82;;;0.20;;
47715;SDS011;33476;50.984;3.538;2022-09-12T15:41:19;2.55;;;0.40;;
47715;SDS011;33476;50.984;3.538;2022-09-12T15:44:06;0.50;;;0.10;;
47715;SDS011;33476;50.984;3.538;2022-09-12T15:46:36;2.25;;;0.20;;
47715;SDS011;33476;50.984;3.538;2022-09-12T15:49:01;5.22;;;0.40;;
47715;SDS011;33476;50.984;3.538;2022-09-12T15:51:26;3.53;;;0.17;;
47715;SDS011;33476;50.984;3.538;2022-09-12T15:53:52;2.33;;;0.25;;
47715;SDS011;33476;50.984;3.538;2022-09-12T15:56:18;8.95;;;0.30;;
47715;SDS011;33476;50.984;3.538;2022-09-12T15:58:45;1.38;;;0.17;;
47715;SDS011;33476;50.984;3.538;2022-09-12T16:01:11;3.55;;;0.17;;
47715;SDS011;33476;50.984;3.538;2022-09-12T16:03:38;1.73;;;0.20;;
47715;SDS011;33476;50.984;3.538;2022-09-12T16:06:03;1.33;;;0.20;;
47715;SDS011;33476;50.984;3.538;2022-09-12T16:08:29;4.72;;;0.25;;
47715;SDS011;33476;50.984;3.538;2022-09-12T16:10:56;2.40;;;0.20;;
47715;SDS011;33476;50.984;3.538;2022-09-12T16:13:24;3.35;;;0.10;;
47715;SDS011;33476;50.984;3.538;2022-09-12T16:15:50;1.73;;;0.20;;
47715;SDS011;33476;50.984;3.538;2022-09-12T16:18:16;0.60;;;0.10;;
47715;SDS011;33476;50.984;3.538;2022-09-12T16:20:42;1.95;;;0.20;;
47715;SDS011;33476;50.984;3.538;2022-09-12T16:23:10;1.63;;;0.20;;
47715;SDS011;33476;50.984;3.538;2022-09-12T16:25:37;2.72;;;0.22;;
47715;SDS011;33476;50.984;3.538;2022-09-12T16:28:04;1.67;;;0.32;;
47715;SDS011;33476;50.984;3.538;2022-09-12T16:30:30;3.28;;;0.30;;
47715;SDS011;33476;50.984;3.538;2022-09-12T16:32:56;2.88;;;0.20;;
47715;SDS011;33476;50.984;3.538;2022-09-12T16:35:22;1.85;;;0.20;;
47715;SDS011;33476;50.984;3.538;2022-09-12T16:37:47;2.42;;;0.40;;
47715;SDS011;33476;50.984;3.538;2022-09-12T16:40:12;1.35;;;0.20;;
47715;SDS011;33476;50.984;3.538;2022-09-12T16:42:39;3.40;;;0.30;;
47715;SDS011;33476;50.984;3.538;2022-09-12T16:45:05;2.13;;;0.30;;
47715;SDS011;33476;50.984;3.538;2022-09-12T16:47:31;3.95;;;0.40;;
47715;SDS011;33476;50.984;3.538;2022-09-12T16:49:57;0.90;;;0.20;;
47715;SDS011;33476;50.984;3.538;2022-09-12T16:52:23;3.67;;;0.22;;
47715;SDS011;33476;50.984;3.538;2022-09-12T16:54:48;1.75;;;0.28;;
47715;SDS011;33476;50.984;3.538;2022-09-12T16:57:13;2.13;;;0.30;;
47715;SDS011;33476;50.984;3.538;2022-09-12T16:59:39;1.67;;;0.17;;
47715;SDS011;33476;50.984;3.538;2022-09-12T17:02:05;1.45;;;0.20;;
47715;SDS011;33476;50.984;3.538;2022-09-12T17:04:30;1.15;;;0.20;;
47715;SDS011;33476;50.984;3.538;2022-09-12T17:06:56;0.75;;;0.20;;
47715;SDS011;33476;50.984;3.538;2022-09-12T17:09:23;8.80;;;0.30;;
47715;SDS011;33476;50.984;3.538;2022-09-12T17:11:49;1.20;;;0.30;;
47715;SDS011;33476;50.984;3.538;2022-09-12T17:14:16;1.52;;;0.20;;
47715;SDS011;33476;50.984;3.538;2022-09-12T17:16:42;0.60;;;0.20;;
47715;SDS011;33476;50.984;3.538;2022-09-12T17:19:11;1.95;;;0.20;;
47715;SDS011;33476;50.984;3.538;2022-09-12T17:21:39;4.00;;;0.20;;
47715;SDS011;33476;50.984;3.538;2022-09-12T17:24:04;1.23;;;0.30;;
47715;SDS011;33476;50.984;3.538;2022-09-12T17:26:30;1.27;;;0.30;;